createdAt,value
2022-08-30T00:01:42.496Z,14.83
2022-08-30T00:04:44.060Z,14.79
2022-08-30T00:07:45.622Z,14.82
2022-08-30T00:10:47.307Z,14.85
2022-08-30T00:13:50.717Z,14.83
2022-08-30T00:16:53.946Z,14.78
2022-08-30T00:19:56.097Z,14.77
2022-08-30T00:22:57.772Z,14.72
2022-08-30T00:26:01.982Z,14.73
2022-08-30T00:29:03.974Z,14.73
2022-08-30T00:32:10.314Z,14.75
2022-08-30T00:35:14.234Z,14.72
2022-08-30T00:38:15.979Z,14.75
2022-08-30T00:41:17.743Z,14.77
2022-08-30T00:44:19.520Z,14.76
2022-08-30T00:47:22.522Z,14.72
2022-08-30T00:50:26.155Z,14.72
2022-08-30T00:53:29.428Z,14.69
2022-08-30T00:56:31.553Z,14.66
2022-08-30T00:59:34.161Z,14.63
2022-08-30T01:02:37.240Z,14.58
2022-08-30T01:05:39.603Z,14.55
2022-08-30T01:08:41.275Z,14.50
2022-08-30T01:11:45.001Z,14.55
2022-08-30T01:14:46.796Z,14.51
2022-08-30T01:17:50.976Z,14.44
2022-08-30T01:20:56.268Z,14.39
2022-08-30T01:24:00.906Z,14.31
2022-08-30T01:27:02.667Z,14.30
2022-08-30T01:30:05.181Z,14.27
2022-08-30T01:33:10.541Z,14.28
2022-08-30T01:36:14.993Z,14.28
2022-08-30T01:39:19.217Z,14.24
2022-08-30T01:42:20.767Z,14.19
2022-08-30T01:45:22.447Z,14.21
2022-08-30T01:48:31.094Z,14.20
2022-08-30T01:51:33.129Z,14.23
2022-08-30T01:54:40.222Z,14.25
2022-08-30T01:57:41.994Z,14.28
2022-08-30T02:00:43.797Z,14.31
2022-08-30T02:03:46.466Z,14.20
2022-08-30T02:06:51.395Z,14.11
2022-08-30T02:09:54.341Z,14.07
2022-08-30T02:12:55.814Z,14.05
2022-08-30T02:15:57.429Z,14.04
2022-08-30T02:18:59.041Z,14.09
2022-08-30T02:22:00.652Z,14.09
2022-08-30T02:25:03.869Z,14.13
2022-08-30T02:28:07.260Z,14.12
2022-08-30T02:31:10.204Z,14.07
2022-08-30T02:34:12.135Z,14.00
2022-08-30T02:37:14.213Z,13.98
2022-08-30T02:40:18.577Z,13.97
2022-08-30T02:43:20.559Z,13.97
2022-08-30T02:46:22.861Z,13.96
2022-08-30T02:49:40.055Z,13.93
2022-08-30T02:52:42.360Z,13.90
2022-08-30T02:55:50.672Z,13.87
2022-08-30T02:58:52.418Z,13.87
2022-08-30T03:01:53.986Z,13.83
2022-08-30T03:04:55.557Z,13.83
2022-08-30T03:07:57.135Z,13.83
2022-08-30T03:11:02.921Z,13.80
2022-08-30T03:14:04.513Z,13.80
2022-08-30T03:17:07.208Z,13.79
2022-08-30T03:20:14.832Z,13.83
2022-08-30T03:23:21.636Z,13.80
2022-08-30T03:26:25.107Z,13.74
2022-08-30T03:29:26.727Z,13.71
2022-08-30T03:32:28.365Z,13.70
2022-08-30T03:35:33.301Z,13.73
2022-08-30T03:38:35.014Z,13.79
2022-08-30T03:41:38.250Z,13.83
2022-08-30T03:44:41.149Z,13.86
2022-08-30T03:47:43.531Z,13.89
2022-08-30T03:50:45.221Z,13.91
2022-08-30T03:53:46.800Z,13.93
2022-08-30T03:56:49.836Z,13.85
2022-08-30T03:59:51.790Z,13.79
2022-08-30T04:02:53.588Z,13.73
2022-08-30T04:05:55.992Z,13.72
2022-08-30T04:08:57.585Z,13.73
2022-08-30T04:12:00.747Z,13.75
2022-08-30T04:15:02.520Z,13.75
2022-08-30T04:18:04.085Z,13.81
2022-08-30T04:21:05.976Z,13.80
2022-08-30T04:24:07.548Z,13.79
2022-08-30T04:27:10.702Z,13.81
2022-08-30T04:30:13.118Z,13.82
2022-08-30T04:33:15.721Z,13.83
2022-08-30T04:36:17.627Z,13.83
2022-08-30T04:39:19.513Z,13.84
2022-08-30T04:42:22.683Z,13.82
2022-08-30T04:45:24.378Z,13.79
2022-08-30T04:48:26.055Z,13.83
2022-08-30T04:51:27.886Z,13.85
2022-08-30T04:54:29.463Z,13.86
2022-08-30T04:57:35.013Z,13.91
2022-08-30T05:00:37.523Z,13.95
2022-08-30T05:03:39.317Z,13.97
2022-08-30T05:06:40.878Z,13.99
2022-08-30T05:09:42.537Z,14.00
2022-08-30T05:12:45.425Z,14.02
2022-08-30T05:15:47.270Z,14.00
2022-08-30T05:18:50.030Z,14.02
2022-08-30T05:21:52.178Z,14.02
2022-08-30T05:24:53.835Z,14.01
2022-08-30T05:27:59.550Z,14.06
2022-08-30T05:31:01.391Z,14.06
2022-08-30T05:34:03.533Z,14.06
2022-08-30T05:37:05.776Z,14.04
2022-08-30T05:40:11.094Z,14.03
2022-08-30T05:43:14.263Z,14.03
2022-08-30T05:46:19.585Z,14.04
2022-08-30T05:49:21.545Z,14.01
2022-08-30T05:52:23.066Z,14.05
2022-08-30T05:55:24.772Z,14.10
2022-08-30T05:58:27.892Z,14.12
2022-08-30T06:01:33.951Z,14.13
2022-08-30T06:04:36.889Z,14.12
2022-08-30T06:07:38.460Z,14.15
2022-08-30T06:10:39.928Z,14.18
2022-08-30T06:13:43.394Z,14.18
2022-08-30T06:16:45.953Z,14.18
2022-08-30T06:19:47.660Z,14.14
2022-08-30T06:22:49.252Z,14.18
2022-08-30T06:25:51.050Z,14.18
2022-08-30T06:28:54.344Z,14.21
2022-08-30T06:31:56.770Z,14.19
2022-08-30T06:34:58.292Z,14.26
2022-08-30T06:37:59.939Z,14.28
2022-08-30T06:41:05.193Z,14.28
2022-08-30T06:44:09.140Z,14.32
2022-08-30T06:47:10.673Z,14.30
2022-08-30T06:50:13.078Z,14.32
2022-08-30T06:53:14.914Z,14.31
2022-08-30T06:56:17.169Z,14.30
2022-08-30T06:59:20.265Z,14.35
2022-08-30T07:02:21.872Z,14.33
2022-08-30T07:05:23.799Z,14.33
2022-08-30T07:08:25.836Z,14.36
2022-08-30T07:11:29.656Z,14.37
2022-08-30T07:14:32.636Z,14.42
2022-08-30T07:17:53.448Z,14.40
2022-08-30T07:20:55.134Z,14.42
2022-08-30T07:23:58.837Z,14.43
2022-08-30T07:27:00.752Z,14.44
2022-08-30T07:30:04.173Z,14.52
2022-08-30T07:33:06.462Z,14.61
2022-08-30T07:36:08.516Z,14.68
2022-08-30T07:39:10.310Z,14.70
2022-08-30T07:42:11.890Z,14.71
2022-08-30T07:45:14.951Z,14.77
2022-08-30T07:48:16.563Z,14.78
2022-08-30T07:51:20.829Z,14.79
2022-08-30T07:54:22.301Z,14.77
2022-08-30T07:57:24.500Z,14.79
2022-08-30T08:00:29.230Z,14.85
2022-08-30T08:03:31.788Z,14.88
2022-08-30T08:06:35.105Z,14.93
2022-08-30T08:09:37.091Z,14.99
2022-08-30T08:12:38.716Z,15.02
2022-08-30T08:15:42.027Z,15.01
2022-08-30T08:18:43.602Z,15.04
2022-08-30T08:21:45.404Z,15.08
2022-08-30T08:24:46.949Z,15.17
2022-08-30T08:27:50.769Z,15.25
2022-08-30T08:30:53.920Z,15.34
2022-08-30T08:33:55.753Z,15.38
2022-08-30T08:36:57.400Z,15.42
2022-08-30T08:39:58.969Z,15.43
2022-08-30T08:43:03.145Z,15.50
2022-08-30T08:46:10.803Z,15.56
2022-08-30T08:49:13.526Z,15.67
2022-08-30T08:52:38.631Z,15.76
2022-08-30T08:55:42.694Z,15.76
2022-08-30T08:58:46.069Z,15.76
2022-08-30T09:01:50.928Z,15.80
2022-08-30T09:04:56.049Z,15.85
2022-08-30T09:08:00.787Z,15.93
2022-08-30T09:11:04.404Z,16.03
2022-08-30T09:14:08.858Z,16.09
2022-08-30T09:17:15.039Z,16.18
2022-08-30T09:20:28.185Z,16.08
2022-08-30T09:23:32.488Z,16.21
2022-08-30T09:26:36.023Z,16.20
2022-08-30T09:29:49.342Z,16.33
2022-08-30T09:32:53.564Z,16.41
2022-08-30T09:35:56.706Z,16.48
2022-08-30T09:39:01.320Z,16.59
2022-08-30T09:42:13.226Z,16.60
2022-08-30T09:45:20.495Z,16.77
2022-08-30T09:48:27.875Z,16.73
2022-08-30T09:51:38.839Z,16.77
2022-08-30T09:54:45.748Z,16.95
2022-08-30T09:57:56.118Z,17.00
2022-08-30T10:01:00.814Z,17.14
2022-08-30T10:04:11.190Z,17.37
2022-08-30T10:07:16.780Z,17.41
2022-08-30T10:10:28.698Z,17.47
2022-08-30T10:13:46.294Z,17.48
2022-08-30T10:16:51.838Z,17.57
2022-08-30T10:20:02.989Z,17.57
2022-08-30T10:23:06.417Z,17.41
2022-08-30T10:26:14.569Z,17.56
2022-08-30T10:29:23.171Z,17.70
2022-08-30T10:32:28.399Z,17.77
2022-08-30T10:38:58.766Z,17.99
2022-08-30T10:42:03.365Z,18.14
2022-08-30T10:45:10.540Z,18.22
2022-08-30T10:48:17.777Z,18.21
2022-08-30T10:51:24.969Z,18.29
2022-08-30T10:54:35.188Z,18.43
2022-08-30T10:57:37.350Z,18.51
2022-08-30T11:00:43.472Z,18.63
2022-08-30T11:04:14.444Z,18.80
2022-08-30T11:07:23.484Z,18.68
2022-08-30T11:10:31.362Z,18.56
2022-08-30T11:13:36.297Z,18.60
2022-08-30T11:16:40.116Z,18.56
2022-08-30T11:19:41.718Z,18.62
2022-08-30T11:23:04.578Z,18.81
2022-08-30T11:26:07.515Z,19.09
2022-08-30T11:29:09.198Z,19.12
2022-08-30T11:32:24.918Z,19.18
2022-08-30T11:35:37.894Z,19.30
2022-08-30T11:39:00.486Z,19.31
2022-08-30T11:42:24.684Z,19.31
2022-08-30T11:45:48.597Z,19.48
2022-08-30T11:48:54.394Z,19.50
2022-08-30T11:52:26.989Z,19.66
2022-08-30T11:55:38.371Z,19.75
2022-08-30T11:58:48.580Z,19.78
2022-08-30T12:01:52.172Z,19.89
2022-08-30T12:04:57.313Z,19.93
2022-08-30T12:08:00.465Z,19.98
2022-08-30T12:11:06.770Z,20.05
2022-08-30T12:14:29.548Z,20.07
2022-08-30T12:17:51.070Z,20.06
2022-08-30T12:20:53.113Z,20.03
2022-08-30T12:24:03.747Z,20.12
2022-08-30T12:27:21.160Z,19.98
2022-08-30T12:30:28.094Z,19.94
2022-08-30T12:33:40.330Z,19.95
2022-08-30T12:36:49.782Z,20.06
2022-08-30T12:40:01.246Z,20.17
2022-08-30T12:43:04.989Z,20.25
2022-08-30T12:46:09.827Z,20.34
2022-08-30T12:49:14.345Z,20.40
2022-08-30T12:52:16.818Z,20.43
2022-08-30T12:55:20.458Z,20.52
2022-08-30T12:58:34.682Z,20.47
2022-08-30T13:01:38.892Z,20.58
2022-08-30T13:04:41.074Z,20.67
2022-08-30T13:07:42.539Z,20.89
2022-08-30T13:11:07.935Z,20.89
2022-08-30T13:14:20.939Z,20.86
2022-08-30T13:17:24.964Z,20.91
2022-08-30T13:20:26.992Z,20.94
2022-08-30T13:23:28.506Z,21.06
2022-08-30T13:26:31.955Z,21.27
2022-08-30T13:29:33.479Z,21.29
2022-08-30T13:32:39.532Z,21.28
2022-08-30T13:35:41.099Z,21.23
2022-08-30T13:38:43.042Z,21.28
2022-08-30T13:41:45.015Z,21.44
2022-08-30T13:44:47.727Z,21.51
2022-08-30T13:47:51.140Z,21.51
2022-08-30T13:50:53.705Z,21.47
2022-08-30T13:53:55.604Z,21.43
2022-08-30T13:56:57.923Z,21.39
2022-08-30T13:59:59.495Z,21.29
2022-08-30T14:03:02.611Z,21.34
2022-08-30T14:06:31.500Z,21.39
2022-08-30T14:09:26.607Z,21.39
2022-08-30T14:16:26.181Z,21.30
2022-08-30T14:19:13.678Z,21.25
2022-08-30T14:22:16.626Z,21.27
2022-08-30T14:25:19.077Z,21.28
2022-08-30T14:28:21.169Z,21.25
2022-08-30T14:31:23.281Z,21.37
2022-08-30T14:34:26.280Z,21.40
2022-08-30T14:37:28.038Z,21.29
2022-08-30T14:40:29.652Z,21.31
2022-08-30T14:43:31.213Z,21.22
2022-08-30T14:46:32.756Z,21.15
2022-08-30T14:49:37.270Z,21.08
2022-08-30T14:52:39.506Z,21.06
2022-08-30T14:55:41.340Z,21.01
2022-08-30T14:58:43.319Z,20.99
2022-08-30T15:01:44.973Z,21.01
2022-08-30T15:04:49.584Z,21.02
2022-08-30T15:07:51.498Z,21.07
2022-08-30T15:10:53.234Z,21.06
2022-08-30T15:13:54.782Z,21.05
2022-08-30T15:16:58.399Z,21.07
2022-08-30T15:20:01.799Z,21.06
2022-08-30T15:23:03.800Z,21.03
2022-08-30T15:26:08.123Z,21.03
2022-08-30T15:29:11.742Z,21.09
2022-08-30T15:32:13.367Z,21.07
2022-08-30T15:35:16.254Z,21.12
2022-08-30T15:38:18.482Z,21.10
2022-08-30T15:41:24.506Z,21.10
2022-08-30T15:44:25.999Z,21.06
2022-08-30T15:47:27.731Z,21.03
2022-08-30T15:50:30.960Z,21.08
2022-08-30T15:53:35.482Z,21.08
2022-08-30T15:56:37.484Z,21.11
2022-08-30T15:59:39.397Z,21.08
2022-08-30T16:02:41.041Z,21.03
2022-08-30T16:05:43.955Z,20.98
2022-08-30T16:08:46.368Z,20.89
2022-08-30T16:11:48.159Z,20.86
2022-08-30T16:14:49.760Z,20.83
2022-08-30T16:17:51.409Z,20.80
2022-08-30T16:21:02.912Z,20.80
2022-08-30T16:24:05.376Z,20.79
2022-08-30T16:27:08.742Z,20.79
2022-08-30T16:30:14.067Z,20.75
2022-08-30T16:33:15.524Z,20.67
2022-08-30T16:36:19.181Z,20.69
2022-08-30T16:39:20.621Z,20.67
2022-08-30T16:42:22.242Z,20.70
2022-08-30T16:45:34.250Z,20.63
2022-08-30T16:48:36.174Z,20.51
2022-08-30T16:51:39.180Z,20.45
2022-08-30T16:54:40.769Z,20.48
2022-08-30T16:57:43.583Z,20.39
2022-08-30T17:00:48.015Z,20.32
2022-08-30T17:03:51.021Z,20.29
2022-08-30T17:06:54.108Z,20.21
2022-08-30T17:09:57.542Z,20.13
2022-08-30T17:12:59.085Z,20.11
2022-08-30T17:16:00.745Z,20.04
2022-08-30T17:19:05.022Z,20.00
2022-08-30T17:22:08.708Z,19.92
2022-08-30T17:25:10.483Z,19.85
2022-08-30T17:28:13.261Z,19.77
2022-08-30T17:31:15.054Z,19.73
2022-08-30T17:34:17.488Z,19.68
2022-08-30T17:37:20.831Z,19.59
2022-08-30T17:40:22.718Z,19.53
2022-08-30T17:43:24.532Z,19.41
2022-08-30T17:46:26.068Z,19.32
2022-08-30T17:49:30.620Z,19.23
2022-08-30T17:52:34.303Z,19.14
2022-08-30T17:55:37.967Z,19.03
2022-08-30T17:58:39.511Z,18.93
2022-08-30T18:01:44.571Z,18.85
2022-08-30T18:04:46.121Z,18.75
2022-08-30T18:07:49.766Z,18.62
2022-08-30T18:10:51.207Z,18.52
2022-08-30T18:13:57.230Z,18.43
2022-08-30T18:16:59.092Z,18.34
2022-08-30T18:20:00.658Z,18.27
2022-08-30T18:23:06.051Z,18.19
2022-08-30T18:26:09.491Z,18.11
2022-08-30T18:29:11.521Z,18.08
2022-08-30T18:32:13.345Z,18.02
2022-08-30T18:35:14.921Z,17.93
2022-08-30T18:38:23.764Z,17.86
2022-08-30T18:41:25.624Z,17.83
2022-08-30T18:44:29.040Z,17.81
2022-08-30T18:47:31.074Z,17.73
2022-08-30T18:50:37.107Z,17.65
2022-08-30T18:53:40.210Z,17.62
2022-08-30T18:56:42.499Z,17.58
2022-08-30T18:59:46.911Z,17.51
2022-08-30T19:02:48.593Z,17.49
2022-08-30T19:05:52.171Z,17.45
2022-08-30T19:08:55.477Z,17.36
2022-08-30T19:11:57.477Z,17.33
2022-08-30T19:14:59.444Z,17.35
2022-08-30T19:18:02.094Z,17.29
2022-08-30T19:21:18.227Z,17.28
2022-08-30T19:24:23.740Z,17.33
2022-08-30T19:27:37.286Z,17.34
2022-08-30T19:30:40.276Z,17.37
2022-08-30T19:33:41.970Z,17.43
2022-08-30T19:36:43.512Z,17.47
2022-08-30T19:39:48.266Z,17.52
2022-08-30T19:42:50.509Z,17.53
2022-08-30T19:45:53.886Z,17.53
2022-08-30T19:48:55.641Z,17.52
2022-08-30T19:51:57.350Z,17.47
2022-08-30T19:55:02.657Z,17.46
2022-08-30T19:58:04.662Z,17.42
2022-08-30T20:01:12.685Z,17.37
2022-08-30T20:04:28.162Z,17.36
2022-08-30T20:07:33.280Z,17.34
2022-08-30T20:10:36.704Z,17.33
2022-08-30T20:13:38.484Z,17.33
2022-08-30T20:16:40.029Z,17.30
2022-08-30T20:19:41.915Z,17.28
2022-08-30T20:22:50.583Z,17.24
2022-08-30T20:25:57.350Z,17.21
2022-08-30T20:29:00.079Z,17.20
2022-08-30T20:32:03.210Z,17.17
2022-08-30T20:35:05.143Z,17.14
2022-08-30T20:38:06.886Z,17.14
2022-08-30T20:41:11.204Z,17.12
2022-08-30T20:44:12.672Z,17.08
2022-08-30T20:47:17.448Z,17.05
2022-08-30T20:50:19.396Z,17.04
2022-08-30T20:53:21.028Z,17.00
2022-08-30T20:56:25.630Z,16.97
2022-08-30T20:59:27.827Z,16.96
2022-08-30T21:02:30.099Z,16.92
2022-08-30T21:05:31.708Z,16.92
2022-08-30T21:08:35.397Z,16.88
2022-08-30T21:11:44.364Z,16.89
2022-08-30T21:14:46.470Z,16.85
2022-08-30T21:17:48.169Z,16.79
2022-08-30T21:20:49.760Z,16.79
2022-08-30T21:23:51.600Z,16.76
2022-08-30T21:26:55.760Z,16.73
2022-08-30T21:29:57.522Z,16.72
2022-08-30T21:33:00.364Z,16.68
2022-08-30T21:36:20.799Z,16.66
2022-08-30T21:39:23.083Z,16.64
2022-08-30T21:42:26.181Z,16.60
2022-08-30T21:45:30.932Z,16.58
2022-08-30T21:48:32.640Z,16.53
2022-08-30T21:51:40.067Z,16.51
2022-08-30T21:54:41.885Z,16.49
2022-08-30T21:57:44.807Z,16.45
2022-08-30T22:00:46.372Z,16.43
2022-08-30T22:03:48.130Z,16.40
2022-08-30T22:06:52.859Z,16.39
2022-08-30T22:09:54.478Z,16.40
2022-08-30T22:12:57.737Z,16.41
2022-08-30T22:15:59.336Z,16.40
2022-08-30T22:19:02.035Z,16.40
2022-08-30T22:22:03.907Z,16.38
2022-08-30T22:25:05.868Z,16.35
2022-08-30T22:28:08.764Z,16.34
2022-08-30T22:31:11.292Z,16.27
2022-08-30T22:34:12.899Z,16.28
2022-08-30T22:37:16.947Z,16.27
2022-08-30T22:40:18.662Z,16.23
2022-08-30T22:43:22.561Z,16.23
2022-08-30T22:46:33.613Z,16.21
2022-08-30T22:49:36.288Z,16.18
2022-08-30T22:52:37.800Z,16.19
2022-08-30T22:55:40.963Z,16.14
2022-08-30T22:58:44.442Z,16.10
2022-08-30T23:01:47.073Z,16.11
2022-08-30T23:04:49.187Z,16.08
2022-08-30T23:07:52.218Z,16.08
2022-08-30T23:10:53.974Z,16.04
2022-08-30T23:13:56.933Z,16.00
2022-08-30T23:17:00.742Z,16.00
2022-08-30T23:20:02.736Z,15.94
2022-08-30T23:23:04.231Z,15.90
2022-08-30T23:26:24.364Z,15.89
2022-08-30T23:29:46.507Z,15.88
2022-08-30T23:33:06.701Z,15.85
2022-08-30T23:36:27.525Z,15.79
2022-08-30T23:39:48.126Z,15.78
2022-08-30T23:43:08.377Z,15.78
2022-08-30T23:46:30.015Z,15.75
2022-08-30T23:49:50.280Z,15.74
2022-08-30T23:53:10.569Z,15.73
2022-08-30T23:56:30.977Z,15.66
2022-08-30T23:59:51.261Z,15.63
